Time;durP1;ratioP1;P1;durP2;ratioP2;P2;SDS_P1;SDS_P2;PMS_P1;PMS_P2;Temp;Humidity;BMP_temperature;BMP_pressure;BME280_temperature;BME280_humidity;BME280_pressure;Samples;Min_cycle;Max_cycle;Signal;HPM_P1;HPM_P2
2021/12/13 00:02:04;;;;;;;63.95;32.22;;;11.30;99.90;;;;;;5072735;28;20036;-75
2021/12/13 00:04:40;;;;;;;74.32;35.13;;;11.20;99.90;;;;;;5088927;28;20473;-76
2021/12/13 00:07:27;;;;;;;72.97;32.20;;;11.20;99.90;;;;;;5072731;28;20095;-75
2021/12/13 00:09:57;;;;;;;69.50;36.05;;;11.30;99.90;;;;;;5089681;28;20353;-76
2021/12/13 00:12:33;;;;;;;73.75;34.45;;;11.30;99.90;;;;;;5091422;28;20425;-75
2021/12/13 00:14:59;;;;;;;68.53;32.92;;;11.30;99.90;;;;;;5092925;28;20093;-75
2021/12/13 00:17:36;;;;;;;72.43;33.88;;;11.20;99.90;;;;;;5091759;28;20024;-76
2021/12/13 00:20:29;;;;;;;68.68;35.58;;;11.20;99.90;;;;;;5073012;28;20056;-76
2021/12/13 00:23:23;;;;;;;69.97;33.55;;;11.20;99.90;;;;;;5079819;28;20496;-76
2021/12/13 00:25:53;;;;;;;77.68;35.60;;;11.20;99.90;;;;;;5071342;28;20071;-75
2021/12/13 00:28:21;;;;;;;76.30;34.58;;;11.20;99.90;;;;;;5093597;28;20020;-76
2021/12/13 00:30:47;;;;;;;72.13;34.55;;;11.30;99.90;;;;;;5083031;28;20035;-76
2021/12/13 00:33:36;;;;;;;72.85;33.53;;;11.30;99.90;;;;;;5082430;28;20024;-75
2021/12/13 00:36:16;;;;;;;81.07;37.03;;;11.20;99.90;;;;;;5081559;28;20107;-76
2021/12/13 00:38:50;;;;;;;76.47;32.30;;;11.20;99.90;;;;;;5083789;28;20380;-76
2021/12/13 00:41:22;;;;;;;75.75;34.95;;;11.10;99.90;;;;;;5081637;28;20031;-76
2021/12/13 00:44:02;;;;;;;75.40;34.00;;;11.20;99.90;;;;;;5082956;28;20039;-76
2021/12/13 00:46:29;;;;;;;73.05;34.40;;;11.20;99.90;;;;;;5082707;28;20029;-76
2021/12/13 00:48:57;;;;;;;75.78;35.08;;;11.10;99.90;;;;;;5081326;28;20028;-75
2021/12/13 00:51:31;;;;;;;83.40;36.63;;;11.10;99.90;;;;;;5078098;28;20020;-76
2021/12/13 00:54:00;;;;;;;71.88;32.72;;;11.20;99.90;;;;;;5082229;28;20062;-75
2021/12/13 00:56:44;;;;;;;69.43;31.33;;;11.20;99.90;;;;;;5085976;28;20020;-75
2021/12/13 00:59:18;;;;;;;55.75;28.58;;;11.10;99.90;;;;;;5092830;28;20028;-75
2021/12/13 01:01:58;;;;;;;69.18;30.05;;;11.20;99.90;;;;;;5092510;28;20048;-75
2021/12/13 01:05:04;;;;;;;76.90;32.00;;;11.20;99.90;;;;;;5093379;28;20027;-75
2021/12/13 01:07:57;;;;;;;84.85;34.30;;;11.10;99.90;;;;;;5078809;28;20444;-75
2021/12/13 01:10:49;;;;;;;72.97;31.75;;;11.20;99.90;;;;;;5092731;28;20016;-75
2021/12/13 01:13:22;;;;;;;72.10;30.98;;;11.20;99.90;;;;;;5088520;28;20473;-75
2021/12/13 01:15:59;;;;;;;74.75;32.97;;;11.20;99.90;;;;;;5090651;28;20059;-75
2021/12/13 01:18:45;;;;;;;65.90;30.48;;;11.20;99.90;;;;;;5092489;28;20052;-75
2021/12/13 01:21:32;;;;;;;73.10;33.88;;;11.20;99.90;;;;;;5092622;28;20032;-75
2021/12/13 01:24:06;;;;;;;74.57;33.08;;;11.20;99.90;;;;;;5071915;28;20051;-75
2021/12/13 01:26:39;;;;;;;66.90;32.63;;;11.10;99.90;;;;;;5085476;28;20029;-75
2021/12/13 01:29:11;;;;;;;68.50;32.25;;;11.20;99.90;;;;;;5093495;28;20119;-75
2021/12/13 01:31:40;;;;;;;63.65;28.98;;;11.20;99.90;;;;;;5092890;28;20034;-75
2021/12/13 01:34:08;;;;;;;71.45;31.50;;;11.20;99.90;;;;;;5089617;28;20103;-75
2021/12/13 01:36:46;;;;;;;79.95;34.85;;;11.10;99.90;;;;;;5092482;28;20085;-75
2021/12/13 01:39:16;;;;;;;73.22;32.38;;;11.20;99.90;;;;;;5093196;28;20360;-75
2021/12/13 01:41:48;;;;;;;73.20;31.80;;;11.20;99.90;;;;;;5093125;28;20067;-75
2021/12/13 01:44:22;;;;;;;74.38;31.73;;;11.20;99.90;;;;;;5092276;28;20034;-75
2021/12/13 01:46:55;;;;;;;79.68;32.08;;;11.20;99.90;;;;;;5089108;28;20054;-75
2021/12/13 01:49:29;;;;;;;73.13;32.97;;;11.20;99.90;;;;;;5077595;28;20028;-75
2021/12/13 01:51:58;;;;;;;69.95;31.88;;;11.20;99.90;;;;;;5076730;28;20052;-75
2021/12/13 01:54:25;;;;;;;75.70;33.05;;;11.10;99.90;;;;;;5076370;28;20151;-75
2021/12/13 01:56:58;;;;;;;63.65;29.50;;;11.10;99.90;;;;;;5083804;28;20028;-76
2021/12/13 02:02:15;;;;;;;67.55;30.75;;;11.10;99.90;;;;;;5096044;28;20480;-75
2021/12/13 02:04:43;;;;;;;66.97;30.65;;;11.20;99.90;;;;;;5076158;28;20118;-75
2021/12/13 02:07:10;;;;;;;70.10;32.30;;;11.20;99.90;;;;;;5084987;28;20032;-75
2021/12/13 02:09:40;;;;;;;67.72;30.98;;;11.10;99.90;;;;;;5092940;28;20099;-75
2021/12/13 02:12:14;;;;;;;63.65;30.83;;;11.20;99.90;;;;;;5095708;28;20019;-75
2021/12/13 02:16:55;;;;;;;66.32;28.95;;;11.10;99.90;;;;;;5093843;28;20051;-76
2021/12/13 02:17:37;;;;;;;60.97;28.85;;;11.20;99.90;;;;;;5094793;28;20036;-75
2021/12/13 02:20:12;;;;;;;61.40;29.77;;;11.10;99.90;;;;;;5095399;28;20024;-75
2021/12/13 02:22:50;;;;;;;64.90;30.98;;;11.10;99.90;;;;;;5088030;28;20387;-75
2021/12/13 02:25:21;;;;;;;67.90;28.90;;;11.00;99.90;;;;;;5095205;28;20057;-75
2021/12/13 02:27:59;;;;;;;65.78;29.90;;;11.10;99.90;;;;;;5095159;28;20036;-75
2021/12/13 02:30:40;;;;;;;65.22;29.92;;;11.10;99.90;;;;;;5090688;28;20076;-75
2021/12/13 02:33:09;;;;;;;65.18;28.85;;;11.10;99.90;;;;;;5083953;28;20032;-75
2021/12/13 02:35:39;;;;;;;56.22;27.98;;;11.10;99.90;;;;;;5091651;28;20479;-75
2021/12/13 02:38:08;;;;;;;62.00;29.13;;;11.10;99.90;;;;;;5095122;28;20032;-75
2021/12/13 02:40:35;;;;;;;59.53;27.52;;;11.00;99.90;;;;;;5093571;28;20017;-75
2021/12/13 02:43:04;;;;;;;65.95;29.13;;;11.00;99.90;;;;;;5082306;28;20039;-75
2021/12/13 02:45:42;;;;;;;63.13;28.23;;;11.00;99.90;;;;;;5090768;28;20020;-75
2021/12/13 02:48:20;;;;;;;65.45;29.90;;;11.00;99.90;;;;;;5095123;28;20024;-75
2021/12/13 02:50:55;;;;;;;60.25;27.63;;;11.10;99.90;;;;;;5095099;28;20471;-75
2021/12/13 02:53:32;;;;;;;61.03;27.20;;;11.10;99.90;;;;;;5094824;28;20028;-75
2021/12/13 02:55:58;;;;;;;56.55;26.48;;;11.10;99.90;;;;;;5077883;28;20484;-75
2021/12/13 02:58:26;;;;;;;58.70;27.88;;;11.10;99.90;;;;;;5094274;28;20024;-75
2021/12/13 03:01:10;;;;;;;60.58;26.50;;;11.10;99.90;;;;;;5094104;28;20028;-75
2021/12/13 03:03:41;;;;;;;56.88;28.50;;;11.10;99.90;;;;;;5089906;28;20035;-75
2021/12/13 03:06:09;;;;;;;52.10;22.80;;;11.10;99.90;;;;;;5093845;28;20024;-75
2021/12/13 03:08:40;;;;;;;56.17;25.67;;;11.10;99.90;;;;;;5094494;28;20561;-75
2021/12/13 03:11:23;;;;;;;54.35;25.98;;;11.10;99.90;;;;;;5087590;28;20113;-75
2021/12/13 03:13:54;;;;;;;54.40;26.88;;;11.00;99.90;;;;;;5081199;28;20028;-77
2021/12/13 03:16:28;;;;;;;56.83;27.33;;;11.00;99.90;;;;;;5093750;28;20031;-77
2021/12/13 03:19:11;;;;;;;55.67;25.60;;;11.10;99.90;;;;;;5094202;28;20024;-75
2021/12/13 03:21:45;;;;;;;;;;;11.10;99.90;;;;;;5091917;28;20032;-75
2021/12/13 03:24:16;;;;;;;49.53;23.30;;;11.00;99.90;;;;;;5093984;28;19904;-75
2021/12/13 03:27:23;;;;;;;48.80;23.15;;;11.10;99.90;;;;;;5092414;28;20016;-75
2021/12/13 03:30:00;;;;;;;46.03;23.73;;;11.10;99.90;;;;;;5010917;28;20033;-76
2021/12/13 03:32:46;;;;;;;53.72;24.25;;;11.00;99.90;;;;;;5072873;28;20125;-75
2021/12/13 03:35:26;;;;;;;44.80;22.90;;;11.00;99.90;;;;;;5087382;28;20021;-75
2021/12/13 03:37:59;;;;;;;48.55;23.48;;;11.00;99.90;;;;;;5077772;28;20012;-75
2021/12/13 03:40:25;;;;;;;46.05;22.95;;;11.00;99.90;;;;;;5093576;28;20024;-75
2021/12/13 03:42:57;;;;;;;48.20;23.45;;;11.10;99.90;;;;;;5081678;28;20032;-75
2021/12/13 03:45:37;;;;;;;42.77;22.83;;;11.10;99.90;;;;;;5089096;28;20356;-75
2021/12/13 03:48:07;;;;;;;44.58;23.05;;;11.00;99.90;;;;;;5090452;28;20296;-75
2021/12/13 03:50:43;;;;;;;47.42;22.55;;;11.00;99.90;;;;;;5092937;28;20024;-75
2021/12/13 03:53:16;;;;;;;237.55;157.50;;;11.00;99.90;;;;;;5093708;28;20423;-75
2021/12/13 03:55:45;;;;;;;46.55;25.85;;;11.00;99.90;;;;;;5092941;28;20360;-75
2021/12/13 03:58:14;;;;;;;43.03;23.67;;;11.00;99.90;;;;;;5092558;28;20085;-75
2021/12/13 04:00:52;;;;;;;39.53;23.08;;;11.00;99.90;;;;;;5093123;28;20024;-75
2021/12/13 04:03:19;;;;;;;44.22;22.88;;;11.00;99.90;;;;;;5081574;28;20074;-75
2021/12/13 04:05:46;;;;;;;38.33;21.20;;;10.90;99.90;;;;;;5091404;28;20028;-75
2021/12/13 04:08:17;;;;;;;39.90;20.90;;;11.00;99.90;;;;;;5092519;28;20035;-75
2021/12/13 04:10:55;;;;;;;37.70;21.23;;;11.00;99.90;;;;;;5092828;28;20017;-75
2021/12/13 04:13:26;;;;;;;36.20;19.88;;;11.00;99.90;;;;;;5093017;28;20028;-76
2021/12/13 04:16:13;;;;;;;40.13;20.73;;;11.00;99.90;;;;;;5093159;28;20012;-75
2021/12/13 04:21:38;;;;;;;37.90;19.05;;;11.00;99.90;;;;;;5088546;28;20474;-76
2021/12/13 04:24:07;;;;;;;38.55;20.02;;;10.90;99.90;;;;;;5092382;28;20035;-76
2021/12/13 04:26:39;;;;;;;38.45;19.95;;;11.00;99.90;;;;;;5092985;28;20111;-75
2021/12/13 04:29:15;;;;;;;38.47;20.88;;;11.00;99.90;;;;;;5089249;28;20032;-75
2021/12/13 04:31:41;;;;;;;38.13;20.02;;;10.90;99.90;;;;;;5091919;28;20065;-75
2021/12/13 04:34:08;;;;;;;33.75;18.63;;;11.00;99.90;;;;;;5081203;28;20063;-75
2021/12/13 04:36:45;;;;;;;35.60;18.80;;;11.00;99.90;;;;;;5091715;28;20028;-75
2021/12/13 04:39:22;;;;;;;38.03;20.13;;;10.90;99.90;;;;;;5092889;28;20028;-75
2021/12/13 04:41:59;;;;;;;35.15;19.95;;;10.90;99.90;;;;;;5092152;28;20042;-75
2021/12/13 04:44:47;;;;;;;34.85;21.08;;;10.90;99.90;;;;;;5094080;28;20036;-75
2021/12/13 04:47:17;;;;;;;31.95;18.05;;;11.00;99.90;;;;;;5092689;28;20027;-75
2021/12/13 04:49:47;;;;;;;32.88;18.50;;;10.90;99.90;;;;;;5091203;28;20103;-75
2021/12/13 04:52:17;;;;;;;33.80;18.45;;;10.90;99.90;;;;;;5092186;28;20021;-75
2021/12/13 04:54:48;;;;;;;32.17;17.85;;;10.90;99.90;;;;;;5092419;28;20024;-75
2021/12/13 04:57:15;;;;;;;30.08;17.77;;;10.90;99.90;;;;;;5092328;28;20024;-76
2021/12/13 04:59:50;;;;;;;35.05;19.23;;;10.90;99.90;;;;;;5077163;28;20036;-75
2021/12/13 05:02:16;;;;;;;35.28;19.02;;;10.90;99.90;;;;;;5089542;28;20082;-75
2021/12/13 05:04:42;;;;;;;30.90;17.63;;;10.90;99.90;;;;;;5093040;28;20019;-75
2021/12/13 05:07:07;;;;;;;34.42;17.70;;;10.90;99.90;;;;;;5097942;28;20529;-75
2021/12/13 05:09:34;;;;;;;30.83;17.33;;;11.00;99.90;;;;;;5092412;28;20020;-75
2021/12/13 05:12:14;;;;;;;33.20;18.38;;;10.90;99.90;;;;;;5092295;28;20043;-75
2021/12/13 05:14:51;;;;;;;32.67;17.27;;;10.90;99.90;;;;;;5083900;28;20032;-76
2021/12/13 05:17:21;;;;;;;30.58;16.70;;;10.90;99.90;;;;;;5096252;28;20036;-75
2021/12/13 05:19:53;;;;;;;27.42;16.13;;;10.90;99.90;;;;;;5092722;28;20017;-75
2021/12/13 05:22:20;;;;;;;30.52;16.00;;;10.80;99.90;;;;;;5092487;28;20475;-76
2021/12/13 05:25:00;;;;;;;53.90;29.92;;;10.80;99.90;;;;;;5096245;28;20020;-75
2021/12/13 05:27:35;;;;;;;33.92;17.77;;;10.90;99.90;;;;;;5093963;28;20485;-75
2021/12/13 05:30:10;;;;;;;29.60;17.52;;;10.90;99.90;;;;;;5093306;28;20031;-75
2021/12/13 05:32:45;;;;;;;29.38;16.85;;;10.90;99.90;;;;;;5086609;28;20039;-76
2021/12/13 05:35:32;;;;;;;27.80;16.90;;;10.90;99.90;;;;;;5090493;28;20024;-75
2021/12/13 05:38:04;;;;;;;26.88;16.30;;;10.90;99.90;;;;;;5080526;28;20031;-75
2021/12/13 05:40:36;;;;;;;;;;;10.80;99.90;;;;;;5096044;28;20030;-75
2021/12/13 05:43:18;;;;;;;28.60;15.15;;;10.80;99.90;;;;;;5096052;28;20000;-75
2021/12/13 05:45:48;;;;;;;28.00;16.17;;;10.90;99.90;;;;;;5093669;28;20120;-75
2021/12/13 05:48:19;;;;;;;23.42;14.90;;;10.90;99.90;;;;;;5095650;28;20077;-75
2021/12/13 05:50:58;;;;;;;32.78;18.25;;;10.80;99.90;;;;;;5096124;28;20517;-75
2021/12/13 05:53:31;;;;;;;26.50;15.55;;;10.80;99.90;;;;;;5095821;28;20031;-75
2021/12/13 05:56:06;;;;;;;30.20;14.75;;;10.80;99.90;;;;;;5095621;28;20234;-75
2021/12/13 05:58:49;;;;;;;27.55;14.27;;;10.90;99.90;;;;;;5088441;28;20016;-75
2021/12/13 06:01:28;;;;;;;27.48;15.02;;;10.80;99.90;;;;;;5089785;28;20040;-75
2021/12/13 06:04:12;;;;;;;32.40;15.27;;;10.90;99.90;;;;;;5079215;28;20027;-75
2021/12/13 06:06:56;;;;;;;25.85;14.77;;;10.90;99.90;;;;;;5093114;28;20084;-75
2021/12/13 06:09:40;;;;;;;35.97;23.45;;;10.80;99.90;;;;;;5090406;28;20494;-75
2021/12/13 06:12:09;;;;;;;210.85;130.05;;;10.80;99.90;;;;;;5081095;28;20422;-75
2021/12/13 06:14:36;;;;;;;49.53;29.90;;;10.90;99.90;;;;;;5095270;28;20020;-75
2021/12/13 06:17:05;;;;;;;34.72;20.17;;;10.80;99.90;;;;;;5095723;28;20024;-75
2021/12/13 06:19:41;;;;;;;29.67;17.02;;;10.80;99.90;;;;;;5093679;28;20158;-75
2021/12/13 06:22:16;;;;;;;29.70;16.67;;;10.80;99.90;;;;;;5080427;28;20040;-75
2021/12/13 06:24:55;;;;;;;23.70;14.90;;;10.90;99.90;;;;;;5084654;28;20040;-75
2021/12/13 06:27:24;;;;;;;28.13;14.50;;;10.90;99.90;;;;;;5094943;28;20107;-75
2021/12/13 06:29:56;;;;;;;24.45;15.75;;;10.70;99.90;;;;;;5089192;28;20032;-75
2021/12/13 06:32:30;;;;;;;22.85;13.85;;;10.80;99.90;;;;;;5092213;28;20024;-75
2021/12/13 06:34:59;;;;;;;22.05;14.13;;;10.70;99.90;;;;;;5087390;28;20032;-75
2021/12/13 06:37:35;;;;;;;24.08;14.52;;;10.80;99.90;;;;;;5093924;28;20024;-75
2021/12/13 06:40:26;;;;;;;23.50;14.07;;;10.80;99.90;;;;;;5094837;28;20372;-75
2021/12/13 06:42:57;;;;;;;21.08;13.95;;;10.80;99.90;;;;;;5091764;28;20364;-75
2021/12/13 06:45:28;;;;;;;22.35;13.68;;;10.80;99.90;;;;;;5091692;28;20031;-73
2021/12/13 06:47:56;;;;;;;23.17;13.85;;;10.80;99.90;;;;;;5091718;28;20035;-74
2021/12/13 06:50:30;;;;;;;22.52;13.35;;;10.80;99.90;;;;;;5092393;28;20482;-73
2021/12/13 06:53:10;;;;;;;21.52;13.05;;;10.80;99.90;;;;;;5094421;28;20028;-73
2021/12/13 06:55:36;;;;;;;25.10;15.32;;;10.80;99.90;;;;;;5090981;28;20031;-73
2021/12/13 06:58:13;;;;;;;23.25;13.98;;;10.80;99.90;;;;;;5093467;28;20025;-74
2021/12/13 07:00:39;;;;;;;22.13;13.82;;;10.80;99.90;;;;;;5089038;28;20074;-75
2021/12/13 07:03:15;;;;;;;22.35;14.18;;;10.70;99.90;;;;;;5080758;28;20978;-76
2021/12/13 07:05:43;;;;;;;23.23;14.05;;;10.70;99.90;;;;;;5088754;28;20051;-74
2021/12/13 07:08:22;;;;;;;21.90;14.15;;;10.70;99.90;;;;;;5093068;28;20028;-75
2021/12/13 07:10:55;;;;;;;24.10;15.27;;;10.80;99.90;;;;;;5092428;28;20115;-75
2021/12/13 07:13:29;;;;;;;21.80;13.38;;;10.80;99.90;;;;;;5092740;28;20020;-75
2021/12/13 07:16:15;;;;;;;24.45;14.90;;;10.80;99.90;;;;;;5075833;28;20396;-75
2021/12/13 07:19:05;;;;;;;26.42;15.35;;;10.80;99.90;;;;;;5086665;28;20032;-75
2021/12/13 07:21:50;;;;;;;26.08;14.20;;;10.90;99.90;;;;;;5091351;28;20043;-75
2021/12/13 07:24:31;;;;;;;23.63;13.85;;;10.80;99.90;;;;;;5093900;28;20075;-75
2021/12/13 07:27:05;;;;;;;21.23;13.30;;;10.90;99.90;;;;;;5087360;28;20028;-75
2021/12/13 07:29:45;;;;;;;21.27;14.32;;;10.90;99.90;;;;;;5090765;28;20024;-75
2021/12/13 07:32:11;;;;;;;20.92;13.30;;;10.90;99.90;;;;;;5091027;28;20042;-75
2021/12/13 07:35:10;;;;;;;20.48;13.45;;;10.90;99.90;;;;;;5083450;28;20040;-75
2021/12/13 07:37:56;;;;;;;22.40;14.38;;;10.80;99.90;;;;;;5077233;28;20043;-75
2021/12/13 07:40:46;;;;;;;35.10;22.65;;;10.80;99.90;;;;;;5084264;28;20087;-76
2021/12/13 07:43:30;;;;;;;20.60;12.43;;;10.80;99.90;;;;;;5082160;28;20024;-75
2021/12/13 07:46:11;;;;;;;22.13;12.95;;;10.80;99.90;;;;;;5083109;28;20031;-75
2021/12/13 07:48:42;;;;;;;20.60;13.77;;;10.80;99.90;;;;;;5085469;28;20023;-75
2021/12/13 07:51:17;;;;;;;19.58;12.40;;;10.80;99.90;;;;;;5084234;28;20464;-75
2021/12/13 07:53:57;;;;;;;18.95;13.35;;;10.80;99.90;;;;;;5085664;28;20046;-74
2021/12/13 07:56:28;;;;;;;20.17;12.90;;;10.80;99.90;;;;;;5083731;28;20024;-75
2021/12/13 07:58:58;;;;;;;16.60;10.93;;;10.80;99.90;;;;;;5079765;28;20469;-75
2021/12/13 08:01:29;;;;;;;19.65;11.63;;;10.90;99.90;;;;;;5081911;28;20158;-76
2021/12/13 08:03:59;;;;;;;20.65;12.27;;;10.80;99.90;;;;;;5083700;28;20034;-74
2021/12/13 08:06:31;;;;;;;18.30;11.73;;;10.80;99.90;;;;;;5079664;28;20074;-75
2021/12/13 08:09:00;;;;;;;21.02;13.00;;;10.80;99.90;;;;;;5080364;28;20048;-74
2021/12/13 08:11:38;;;;;;;19.60;12.77;;;10.80;99.90;;;;;;5083353;28;20059;-74
2021/12/13 08:14:05;;;;;;;20.13;13.23;;;10.90;99.90;;;;;;5082122;28;20418;-74
2021/12/13 08:16:39;;;;;;;20.70;13.77;;;10.90;99.90;;;;;;5085063;28;20016;-74
2021/12/13 08:19:16;;;;;;;21.17;12.55;;;10.90;99.90;;;;;;5083096;28;20032;-73
2021/12/13 08:21:46;;;;;;;16.73;11.00;;;10.90;99.90;;;;;;5082886;28;20032;-74
2021/12/13 08:24:25;;;;;;;20.23;12.50;;;10.90;99.90;;;;;;5080065;28;20024;-74
2021/12/13 08:27:05;;;;;;;16.70;10.68;;;10.90;99.90;;;;;;5080135;28;20021;-75
2021/12/13 08:29:36;;;;;;;20.70;12.32;;;10.90;99.90;;;;;;5083486;28;20020;-75
2021/12/13 08:32:20;;;;;;;18.15;11.07;;;10.90;99.90;;;;;;5081465;28;20024;-74
2021/12/13 08:34:50;;;;;;;17.48;10.15;;;11.00;99.90;;;;;;5081455;28;20036;-74
2021/12/13 08:37:37;;;;;;;17.13;10.57;;;10.90;99.90;;;;;;5082314;28;20016;-74
2021/12/13 08:40:11;;;;;;;19.00;10.63;;;11.00;99.90;;;;;;5086907;28;20032;-74
2021/12/13 08:42:41;;;;;;;16.92;10.00;;;11.00;99.90;;;;;;5087213;28;20097;-74
2021/12/13 08:45:22;;;;;;;16.90;11.63;;;11.00;99.90;;;;;;5083247;28;20024;-74
2021/12/13 08:47:55;;;;;;;21.98;17.17;;;11.00;99.90;;;;;;5086109;28;20111;-74
2021/12/13 08:50:38;;;;;;;16.23;10.70;;;11.00;99.90;;;;;;5085932;28;20020;-74
2021/12/13 08:53:20;;;;;;;16.02;9.85;;;11.00;99.90;;;;;;5091399;28;20047;-73
2021/12/13 08:56:23;;;;;;;16.45;10.10;;;11.00;99.90;;;;;;5090649;28;20069;-76
2021/12/13 08:58:59;;;;;;;14.23;9.60;;;11.00;99.90;;;;;;5069198;28;20075;-76
2021/12/13 09:01:28;;;;;;;15.05;9.85;;;11.00;99.90;;;;;;5081853;28;20021;-75
2021/12/13 09:03:54;;;;;;;21.83;14.07;;;11.00;99.90;;;;;;5084434;28;20051;-75
2021/12/13 09:06:33;;;;;;;16.05;10.90;;;11.00;99.90;;;;;;5082342;28;20086;-75
2021/12/13 09:09:15;;;;;;;18.33;11.30;;;11.00;99.90;;;;;;5082696;28;20013;-75
2021/12/13 09:11:56;;;;;;;15.32;10.80;;;11.00;99.90;;;;;;5084643;28;20028;-75
2021/12/13 09:14:39;;;;;;;15.38;10.07;;;11.00;99.90;;;;;;5082633;28;20032;-75
2021/12/13 09:17:10;;;;;;;19.08;10.85;;;11.00;99.90;;;;;;5081942;28;20103;-75
2021/12/13 09:20:02;;;;;;;16.58;11.13;;;11.00;99.90;;;;;;5084926;28;20016;-75
2021/12/13 09:22:37;;;;;;;17.53;11.50;;;11.00;99.90;;;;;;5082329;28;20040;-75
2021/12/13 09:25:09;;;;;;;17.20;11.52;;;10.90;99.90;;;;;;5077530;28;20488;-76
2021/12/13 09:27:51;;;;;;;15.70;11.27;;;10.90;99.90;;;;;;5077840;28;20115;-75
2021/12/13 09:30:38;;;;;;;16.35;10.45;;;10.90;99.90;;;;;;5078344;28;20327;-76
2021/12/13 09:33:17;;;;;;;16.00;10.30;;;10.90;99.90;;;;;;5080447;28;20049;-76
2021/12/13 09:36:00;;;;;;;16.60;9.73;;;10.90;99.90;;;;;;5079350;28;20414;-76
2021/12/13 09:38:41;;;;;;;12.20;8.50;;;10.90;99.90;;;;;;5085079;28;20032;-75
2021/12/13 09:41:27;;;;;;;13.88;8.40;;;10.90;99.90;;;;;;5089481;28;20107;-75
2021/12/13 09:44:16;;;;;;;12.77;9.65;;;11.00;99.90;;;;;;5082395;28;20036;-75
2021/12/13 09:47:09;;;;;;;11.95;8.48;;;11.00;99.90;;;;;;5081439;28;20075;-75
2021/12/13 09:49:37;;;;;;;10.10;8.05;;;11.00;99.90;;;;;;5093448;28;20020;-75
2021/12/13 09:52:14;;;;;;;11.40;8.00;;;11.00;99.90;;;;;;5090369;28;20069;-75
2021/12/13 09:54:42;;;;;;;9.68;7.97;;;11.00;99.90;;;;;;5082446;28;20410;-75
2021/12/13 09:57:12;;;;;;;9.27;6.97;;;10.90;99.90;;;;;;5089518;28;20039;-75
2021/12/13 09:59:42;;;;;;;9.70;6.70;;;10.90;99.90;;;;;;5089722;28;20024;-75
2021/12/13 10:02:15;;;;;;;8.50;6.70;;;10.90;99.90;;;;;;5075118;28;20032;-75
2021/12/13 10:04:42;;;;;;;;;;;10.90;99.90;;;;;;5086404;28;20468;-73
2021/12/13 10:07:19;;;;;;;10.18;6.38;;;10.90;99.90;;;;;;5085998;28;19912;-75
2021/12/13 10:09:52;;;;;;;12.57;6.20;;;11.00;99.90;;;;;;5094089;28;20096;-76
2021/12/13 10:12:20;;;;;;;6.47;5.65;;;11.00;99.90;;;;;;5089366;28;20086;-75
2021/12/13 10:15:18;;;;;;;7.75;6.13;;;10.90;99.90;;;;;;5086125;28;20081;-75
2021/12/13 10:17:49;;;;;;;8.63;5.60;;;10.90;99.90;;;;;;5093645;28;20020;-75
2021/12/13 10:20:19;;;;;;;7.72;5.82;;;11.00;99.90;;;;;;5095499;28;20020;-75
2021/12/13 10:22:47;;;;;;;7.47;5.28;;;11.10;99.90;;;;;;5095122;28;20075;-75
2021/12/13 10:25:26;;;;;;;6.82;5.18;;;11.00;99.90;;;;;;5094502;28;20026;-75
2021/12/13 10:27:53;;;;;;;6.22;4.55;;;11.10;99.90;;;;;;5085689;28;20028;-75
2021/12/13 10:30:35;;;;;;;5.03;4.50;;;11.10;99.90;;;;;;5094105;28;20054;-75
2021/12/13 10:33:02;;;;;;;6.10;4.47;;;11.10;99.90;;;;;;5086706;28;20025;-75
2021/12/13 10:35:33;;;;;;;4.97;4.05;;;11.10;99.90;;;;;;5091763;28;20081;-75
2021/12/13 10:38:04;;;;;;;4.30;3.45;;;11.10;99.90;;;;;;5095169;28;20398;-75
2021/12/13 10:40:42;;;;;;;5.38;3.78;;;11.20;99.90;;;;;;5093575;28;20387;-75
2021/12/13 10:43:21;;;;;;;4.45;3.85;;;11.20;99.90;;;;;;5088409;28;20040;-75
2021/12/13 10:45:54;;;;;;;5.30;4.80;;;11.20;99.90;;;;;;5079924;28;20024;-75
2021/12/13 10:48:22;;;;;;;19.25;13.52;;;11.20;99.90;;;;;;5082543;28;20503;-77
2021/12/13 10:50:56;;;;;;;10.18;6.90;;;11.20;99.90;;;;;;5094159;28;20390;-76
2021/12/13 10:53:24;;;;;;;6.03;4.90;;;11.20;99.90;;;;;;5094654;28;20051;-75
2021/12/13 10:56:03;;;;;;;5.18;4.30;;;11.30;99.90;;;;;;5078094;28;20024;-75
2021/12/13 10:58:34;;;;;;;7.75;4.30;;;11.30;99.90;;;;;;5094616;28;20020;-75
2021/12/13 11:01:06;;;;;;;3.67;3.38;;;11.30;99.90;;;;;;5093275;28;20040;-75
2021/12/13 11:03:32;;;;;;;4.47;3.67;;;11.30;99.90;;;;;;5082014;28;20473;-75
2021/12/13 11:05:59;;;;;;;8.70;4.63;;;11.20;99.90;;;;;;5092155;28;20043;-76
2021/12/13 11:08:26;;;;;;;5.35;4.30;;;11.30;99.90;;;;;;5082440;28;20017;-77
2021/12/13 11:11:08;;;;;;;5.18;4.22;;;11.30;99.90;;;;;;5094477;28;20021;-76
2021/12/13 11:13:37;;;;;;;5.05;4.28;;;11.30;99.90;;;;;;5084789;28;20117;-76
2021/12/13 11:16:19;;;;;;;4.72;3.53;;;11.30;99.90;;;;;;5094666;28;20054;-76
2021/12/13 11:18:45;;;;;;;4.93;3.35;;;11.30;99.90;;;;;;5076334;28;20031;-76
2021/12/13 11:21:20;;;;;;;5.35;3.83;;;11.30;99.90;;;;;;5089197;28;20024;-76
2021/12/13 11:23:46;;;;;;;7.57;3.53;;;11.30;99.90;;;;;;5084888;28;20028;-76
2021/12/13 11:26:16;;;;;;;7.05;4.80;;;11.40;99.90;;;;;;5094215;28;20474;-76
2021/12/13 11:28:42;;;;;;;4.05;3.70;;;11.30;99.90;;;;;;5094146;28;20024;-77
2021/12/13 11:31:22;;;;;;;4.80;3.72;;;11.30;99.90;;;;;;5093174;28;20492;-77
2021/12/13 11:34:00;;;;;;;6.10;3.42;;;11.30;99.90;;;;;;5081584;28;20037;-76
2021/12/13 11:37:00;;;;;;;6.55;3.80;;;11.40;99.90;;;;;;5093947;28;20027;-76
2021/12/13 11:39:49;;;;;;;7.65;6.35;;;11.30;99.90;;;;;;5083772;28;20021;-76
2021/12/13 11:42:53;;;;;;;6.50;4.32;;;11.40;99.90;;;;;;5093436;28;20119;-76
2021/12/13 11:45:45;;;;;;;4.25;3.85;;;11.40;99.90;;;;;;5021509;28;20041;-76
2021/12/13 11:48:36;;;;;;;7.00;3.83;;;11.40;99.90;;;;;;5080143;28;20024;-76
2021/12/13 11:51:04;;;;;;;4.72;4.22;;;11.30;99.90;;;;;;5092904;28;20059;-76
2021/12/13 11:53:43;;;;;;;5.30;4.10;;;11.40;99.90;;;;;;5089117;28;20085;-76
2021/12/13 11:56:15;;;;;;;6.35;4.10;;;11.40;99.90;;;;;;5091050;28;20031;-77
2021/12/13 11:59:19;;;;;;;4.65;3.40;;;11.40;99.90;;;;;;5092524;28;20012;-76
2021/12/13 12:02:32;;;;;;;3.58;3.20;;;11.40;99.90;;;;;;5092638;28;20392;-76
2021/12/13 12:05:39;;;;;;;5.78;3.85;;;11.40;99.90;;;;;;5080540;28;20058;-76
2021/12/13 12:08:25;;;;;;;5.82;4.22;;;11.40;99.90;;;;;;5026795;28;20155;-77
2021/12/13 12:11:23;;;;;;;5.18;4.68;;;11.40;99.90;;;;;;5092309;28;20016;-77
2021/12/13 12:14:02;;;;;;;5.85;4.72;;;11.50;99.90;;;;;;5074507;28;20106;-78
2021/12/13 12:16:28;;;;;;;5.40;4.45;;;11.50;99.90;;;;;;5092432;28;20028;-77
2021/12/13 12:18:56;;;;;;;5.95;3.88;;;11.50;99.90;;;;;;5093227;28;20021;-77
2021/12/13 12:21:36;;;;;;;6.93;4.78;;;11.50;99.90;;;;;;5093193;28;20031;-77
2021/12/13 12:24:09;;;;;;;7.38;3.97;;;11.40;99.90;;;;;;5086204;28;20020;-77
2021/12/13 12:26:35;;;;;;;7.18;4.00;;;11.40;99.90;;;;;;5088260;28;20025;-77
2021/12/13 12:29:08;;;;;;;7.80;4.78;;;11.40;99.90;;;;;;5084611;28;20024;-78
2021/12/13 12:31:41;;;;;;;7.68;5.20;;;11.50;99.90;;;;;;5090443;28;20560;-78
2021/12/13 12:34:10;;;;;;;4.75;3.58;;;11.50;99.90;;;;;;5081258;28;20586;-76
2021/12/13 12:36:56;;;;;;;7.40;4.88;;;11.50;99.90;;;;;;5082621;28;20023;-76
2021/12/13 12:39:50;;;;;;;10.43;5.30;;;11.50;99.90;;;;;;5082066;28;20068;-82
2021/12/13 12:42:27;;;;;;;12.07;4.88;;;11.50;99.90;;;;;;5081577;28;20495;-80
2021/12/13 12:44:56;;;;;;;12.18;8.38;;;11.50;99.90;;;;;;5081990;28;20052;-83
2021/12/13 12:47:44;;;;;;;19.52;14.10;;;11.50;99.90;;;;;;5082496;28;20035;-79
2021/12/13 12:50:20;;;;;;;6.03;4.55;;;11.40;99.90;;;;;;5041143;28;20040;-80
2021/12/13 12:52:54;;;;;;;22.40;5.35;;;11.50;99.90;;;;;;5082713;28;20037;-76
2021/12/13 12:55:38;;;;;;;7.93;4.32;;;11.60;99.90;;;;;;5081754;28;20016;-77
2021/12/13 12:58:11;;;;;;;6.10;3.88;;;11.70;99.90;;;;;;5084513;28;20032;-74
2021/12/13 13:00:37;;;;;;;15.40;9.95;;;12.00;99.90;;;;;;5082951;28;20020;-80
2021/12/13 13:03:04;;;;;;;4.55;3.80;;;11.90;99.90;;;;;;5083504;28;20040;-80
2021/12/13 13:05:31;;;;;;;5.75;4.15;;;11.70;99.90;;;;;;5083897;28;20028;-79
2021/12/13 13:07:56;;;;;;;5.85;3.78;;;11.70;99.90;;;;;;5090219;28;20020;-79
2021/12/13 13:10:34;;;;;;;9.30;7.22;;;11.70;99.90;;;;;;5079376;28;20078;-80
2021/12/13 13:13:10;;;;;;;11.18;5.10;;;11.60;99.90;;;;;;5090531;28;20013;-80
2021/12/13 13:15:54;;;;;;;4.47;3.80;;;11.60;99.90;;;;;;5091429;28;20055;-80
2021/12/13 13:18:25;;;;;;;4.93;4.32;;;11.60;99.90;;;;;;5091086;28;20349;-79
2021/12/13 13:20:57;;;;;;;5.32;4.00;;;11.60;99.90;;;;;;5096822;28;20030;-79
2021/12/13 13:23:26;;;;;;;5.20;3.75;;;11.60;99.90;;;;;;5093214;28;20043;-77